createdAt,value
2018-11-13T00:00:16.629Z,38.37
2018-11-13T00:02:45.204Z,39.60
2018-11-13T00:05:14.869Z,38.90
2018-11-13T00:07:43.726Z,45.27
2018-11-13T00:10:13.723Z,43.37
2018-11-13T00:12:42.866Z,47.60
2018-11-13T00:15:12.257Z,38.83
2018-11-13T00:17:41.660Z,41.10
2018-11-13T00:20:13.662Z,39.83
2018-11-13T00:22:43.028Z,36.90
2018-11-13T00:25:13.827Z,39.43
2018-11-13T00:27:43.410Z,47.43
2018-11-13T00:30:14.694Z,42.63
2018-11-13T00:32:43.922Z,37.67
2018-11-13T00:35:13.655Z,38.33
2018-11-13T00:37:42.834Z,37.87
2018-11-13T00:40:12.537Z,46.83
2018-11-13T00:42:42.542Z,34.10
2018-11-13T00:45:11.231Z,35.50
2018-11-13T00:47:39.785Z,35.50
2018-11-13T00:50:17.239Z,39.67
2018-11-13T00:52:46.570Z,40.07
2018-11-13T00:55:15.395Z,38.10
2018-11-13T00:57:45.112Z,38.53
2018-11-13T01:00:16.905Z,40.10
2018-11-13T01:02:45.964Z,38.80
2018-11-13T01:05:15.956Z,43.57
2018-11-13T01:07:45.812Z,37.60
2018-11-13T01:10:15.500Z,42.60
2018-11-13T01:12:45.006Z,36.60
2018-11-13T01:15:17.312Z,43.10
2018-11-13T01:17:46.895Z,37.90
2018-11-13T01:20:16.464Z,40.47
2018-11-13T01:22:45.203Z,38.37
2018-11-13T01:25:14.876Z,44.67
2018-11-13T01:27:45.324Z,39.60
2018-11-13T01:30:15.566Z,40.10
2018-11-13T01:32:44.731Z,43.90
2018-11-13T01:35:14.967Z,50.90
2018-11-13T01:37:43.639Z,46.53
2018-11-13T01:40:17.020Z,42.90
2018-11-13T01:42:46.350Z,47.40
2018-11-13T01:45:16.692Z,42.67
2018-11-13T01:47:46.052Z,44.07
2018-11-13T01:50:15.255Z,48.40
2018-11-13T01:52:43.836Z,44.03
2018-11-13T01:55:13.808Z,40.70
2018-11-13T01:57:42.456Z,43.00
2018-11-13T02:00:16.784Z,43.67
2018-11-13T02:02:47.203Z,45.67
2018-11-13T02:05:16.515Z,47.47
2018-11-13T02:07:45.168Z,45.50
2018-11-13T02:10:14.400Z,40.10
2018-11-13T02:12:43.986Z,41.77
2018-11-13T02:15:12.978Z,47.50
2018-11-13T02:17:41.992Z,46.63
2018-11-13T02:20:14.867Z,40.63
2018-11-13T02:22:43.730Z,43.03
2018-11-13T02:25:13.906Z,43.23
2018-11-13T02:27:43.159Z,39.93
2018-11-13T02:30:16.183Z,46.87
2018-11-13T02:32:45.326Z,40.30
2018-11-13T02:35:14.738Z,37.57
2018-11-13T02:37:43.678Z,41.53
2018-11-13T02:40:12.524Z,38.10
2018-11-13T02:42:41.131Z,37.87
2018-11-13T02:45:13.409Z,43.53
2018-11-13T02:47:42.514Z,42.60
2018-11-13T02:50:13.142Z,41.67
2018-11-13T02:52:42.186Z,41.73
2018-11-13T02:55:11.951Z,36.90
2018-11-13T02:57:41.282Z,42.40
2018-11-13T03:00:14.117Z,38.67
2018-11-13T03:02:42.762Z,42.10
2018-11-13T03:05:13.765Z,43.70
2018-11-13T03:07:42.802Z,41.10
2018-11-13T03:10:13.476Z,40.70
2018-11-13T03:12:42.133Z,38.60
2018-11-13T03:15:13.626Z,43.80
2018-11-13T03:17:42.908Z,45.53
2018-11-13T03:20:13.800Z,40.27
2018-11-13T03:22:43.030Z,42.90
2018-11-13T03:25:14.080Z,42.87
2018-11-13T03:27:42.883Z,41.40
2018-11-13T03:30:16.099Z,43.03
2018-11-13T03:32:45.290Z,39.80
2018-11-13T03:35:13.917Z,45.03
2018-11-13T03:37:44.244Z,41.73
2018-11-13T03:40:13.763Z,41.40
2018-11-13T03:42:42.974Z,38.57
2018-11-13T03:45:12.648Z,48.63
2018-11-13T03:47:41.233Z,37.30
2018-11-13T03:50:15.485Z,41.97
2018-11-13T03:52:44.557Z,39.17
2018-11-13T03:55:14.395Z,44.50
2018-11-13T03:57:44.392Z,38.97
2018-11-13T04:00:14.805Z,38.20
2018-11-13T04:02:43.538Z,44.00
2018-11-13T04:05:16.122Z,40.33
2018-11-13T04:07:49.093Z,37.00
2018-11-13T04:10:19.408Z,41.03
2018-11-13T04:12:48.275Z,36.30
2018-11-13T04:15:18.356Z,33.57
2018-11-13T04:17:46.932Z,40.93
2018-11-13T04:20:18.463Z,36.97
2018-11-13T04:22:47.626Z,45.30
2018-11-13T04:25:16.181Z,39.10
2018-11-13T04:27:44.737Z,38.37
2018-11-13T04:30:15.249Z,40.33
2018-11-13T04:32:44.335Z,38.67
2018-11-13T04:35:14.036Z,41.70
2018-11-13T04:37:42.637Z,37.10
2018-11-13T04:40:15.554Z,41.83
2018-11-13T04:42:48.386Z,42.90
2018-11-13T04:45:18.324Z,39.17
2018-11-13T04:47:47.797Z,36.73
2018-11-13T04:50:17.634Z,36.90
2018-11-13T04:52:46.197Z,42.43
2018-11-13T04:55:15.069Z,31.80
2018-11-13T04:57:44.645Z,43.10
2018-11-13T05:00:16.015Z,33.90
2018-11-13T05:02:45.611Z,35.80
2018-11-13T05:05:15.373Z,37.03
2018-11-13T05:07:47.245Z,31.43
2018-11-13T05:10:15.929Z,35.97
2018-11-13T05:12:45.665Z,36.83
2018-11-13T05:15:14.273Z,38.93
2018-11-13T05:17:43.839Z,37.17
2018-11-13T05:20:14.881Z,39.87
2018-11-13T05:22:43.656Z,37.40
2018-11-13T05:25:14.377Z,38.20
2018-11-13T05:27:43.569Z,44.17
2018-11-13T05:30:15.390Z,39.47
2018-11-13T05:32:44.049Z,44.80
2018-11-13T05:35:14.133Z,42.90
2018-11-13T05:37:43.707Z,48.30
2018-11-13T05:40:14.498Z,36.27
2018-11-13T05:42:43.345Z,35.40
2018-11-13T05:45:14.593Z,39.83
2018-11-13T05:47:43.350Z,41.20
2018-11-13T05:50:13.428Z,38.73
2018-11-13T05:52:42.912Z,43.73
2018-11-13T05:55:12.213Z,41.17
2018-11-13T05:57:41.208Z,36.10
2018-11-13T06:00:12.986Z,32.03
2018-11-13T06:02:42.506Z,38.93
2018-11-13T06:05:12.010Z,41.53
2018-11-13T06:07:40.994Z,44.80
2018-11-13T06:10:11.245Z,44.83
2018-11-13T06:12:39.759Z,43.30
2018-11-13T06:15:10.770Z,40.40
2018-11-13T06:17:39.617Z,38.07
2018-11-13T06:20:10.598Z,42.00
2018-11-13T06:22:39.285Z,47.13
2018-11-13T06:25:10.354Z,37.90
2018-11-13T06:27:39.482Z,50.13
2018-11-13T06:30:11.884Z,45.13
2018-11-13T06:32:40.415Z,46.60
2018-11-13T06:35:09.595Z,39.80
2018-11-13T06:37:39.734Z,40.53
2018-11-13T06:40:09.535Z,39.90
2018-11-13T06:42:38.746Z,50.03
2018-11-13T06:45:10.729Z,39.60
2018-11-13T06:47:39.299Z,44.17
2018-11-13T06:50:09.033Z,46.00
2018-11-13T06:52:37.927Z,40.43
2018-11-13T06:55:09.619Z,38.17
2018-11-13T06:57:38.465Z,45.53
2018-11-13T07:00:09.079Z,45.53
2018-11-13T07:02:38.817Z,86.07
2018-11-13T07:05:10.766Z,63.97
2018-11-13T07:07:39.820Z,44.07
2018-11-13T07:10:10.308Z,51.00
2018-11-13T07:12:39.909Z,45.63
2018-11-13T07:15:09.619Z,43.13
2018-11-13T07:17:39.729Z,46.20
2018-11-13T07:20:10.383Z,39.20
2018-11-13T07:22:39.533Z,47.43
2018-11-13T07:25:08.252Z,50.47
2018-11-13T07:27:36.843Z,51.80
2018-11-13T07:30:07.467Z,63.00
2018-11-13T07:32:36.418Z,77.83
2018-11-13T07:35:06.124Z,56.00
2018-11-13T07:37:34.786Z,50.40
2018-11-13T07:40:03.652Z,46.83
2018-11-13T07:42:32.381Z,56.17
2018-11-13T07:45:01.214Z,52.17
2018-11-13T07:47:29.850Z,52.90
2018-11-13T07:49:59.176Z,50.73
2018-11-13T07:52:27.699Z,49.23
2018-11-13T07:54:56.589Z,49.87
2018-11-13T07:57:25.953Z,47.47
2018-11-13T07:59:54.934Z,54.77
2018-11-13T08:02:23.455Z,43.93
2018-11-13T08:04:52.398Z,52.83
2018-11-13T08:07:21.047Z,43.50
2018-11-13T08:09:50.999Z,45.53
2018-11-13T08:12:19.571Z,44.53
2018-11-13T08:14:48.321Z,56.80
2018-11-13T08:17:16.829Z,55.03
2018-11-13T08:19:45.698Z,50.70
2018-11-13T08:22:17.149Z,54.60
2018-11-13T08:24:45.935Z,61.10
2018-11-13T08:27:14.535Z,58.47
2018-11-13T08:29:43.336Z,52.43
2018-11-13T08:32:11.857Z,48.87
2018-11-13T08:34:40.788Z,35.83
2018-11-13T08:37:09.636Z,43.17
2018-11-13T08:39:38.671Z,31.20
2018-11-13T08:42:07.185Z,30.47
2018-11-13T08:44:36.233Z,27.33
2018-11-13T08:47:04.834Z,18.20
2018-11-13T08:49:34.164Z,15.43
2018-11-13T08:52:02.687Z,11.13
2018-11-13T08:54:31.719Z,12.50
2018-11-13T08:57:00.258Z,13.70
2018-11-13T08:59:29.049Z,14.33
2018-11-13T09:01:58.338Z,12.80
2018-11-13T09:04:27.165Z,11.57
2018-11-13T09:06:55.728Z,9.77
2018-11-13T09:09:24.249Z,10.00
2018-11-13T09:11:53.530Z,12.30
2018-11-13T09:14:21.999Z,11.80
2018-11-13T09:16:50.867Z,10.80
2018-11-13T09:19:19.555Z,11.73
2018-11-13T09:21:49.240Z,13.70
2018-11-13T09:24:17.751Z,17.70
2018-11-13T09:26:46.767Z,12.70
2018-11-13T09:29:15.332Z,11.37
2018-11-13T09:31:43.872Z,13.50
2018-11-13T09:34:13.018Z,11.23
2018-11-13T09:36:41.520Z,14.93
2018-11-13T09:39:11.894Z,13.40
2018-11-13T09:41:40.623Z,17.03
2018-11-13T09:44:09.507Z,14.93
2018-11-13T09:46:38.487Z,12.90
2018-11-13T09:49:07.813Z,12.30
2018-11-13T09:51:36.312Z,15.93
2018-11-13T09:54:06.201Z,15.00
2018-11-13T09:56:34.809Z,16.40
2018-11-13T09:59:03.524Z,13.43
2018-11-13T10:01:32.431Z,15.10
2018-11-13T10:04:01.329Z,16.97
2018-11-13T10:06:29.463Z,13.20
2018-11-13T10:08:58.515Z,12.67
2018-11-13T10:11:27.061Z,14.03
2018-11-13T10:13:55.895Z,12.30
2018-11-13T10:16:24.471Z,24.10
2018-11-13T10:18:53.294Z,14.03
2018-11-13T10:21:23.383Z,15.40
2018-11-13T10:23:52.067Z,16.70
2018-11-13T10:26:20.882Z,17.40
2018-11-13T10:28:49.649Z,26.40
2018-11-13T10:31:18.323Z,15.23
2018-11-13T10:33:47.434Z,21.03
2018-11-13T10:36:15.962Z,17.23
2018-11-13T10:38:45.189Z,19.70
2018-11-13T10:41:13.782Z,18.43
2018-11-13T10:43:43.190Z,18.10
2018-11-13T10:46:11.751Z,14.13
2018-11-13T10:48:40.609Z,15.60
2018-11-13T10:51:09.136Z,18.00
2018-11-13T10:53:38.147Z,12.90
2018-11-13T10:56:07.746Z,16.20
2018-11-13T10:58:38.582Z,19.10
2018-11-13T11:01:12.706Z,16.30
2018-11-13T11:03:42.713Z,18.03
2018-11-13T11:06:11.232Z,16.33
2018-11-13T11:08:39.752Z,15.07
2018-11-13T11:11:09.382Z,15.30
2018-11-13T11:13:39.179Z,14.67
2018-11-13T11:16:08.228Z,14.20
2018-11-13T11:18:36.765Z,12.53
2018-11-13T11:21:05.945Z,13.43
2018-11-13T11:23:34.620Z,11.63
2018-11-13T11:26:03.178Z,16.57
2018-11-13T11:28:31.754Z,15.10
2018-11-13T11:31:00.949Z,11.93
2018-11-13T11:33:29.498Z,11.13
2018-11-13T11:35:58.288Z,11.63
2018-11-13T11:38:26.925Z,13.33
2018-11-13T11:40:55.669Z,13.20
2018-11-13T11:43:24.196Z,10.23
2018-11-13T11:45:53.308Z,11.93
2018-11-13T11:48:21.863Z,11.97
2018-11-13T11:50:50.630Z,10.80
2018-11-13T11:53:19.183Z,10.80
2018-11-13T11:55:47.976Z,11.40
2018-11-13T11:58:16.551Z,10.57
2018-11-13T12:00:45.440Z,10.03
2018-11-13T12:03:16.149Z,10.40
2018-11-13T12:05:45.158Z,11.20
2018-11-13T12:08:13.715Z,11.47
2018-11-13T12:10:42.674Z,9.70
2018-11-13T12:13:11.328Z,9.90
2018-11-13T12:15:40.131Z,14.17
2018-11-13T12:18:08.656Z,10.20
2018-11-13T12:20:37.916Z,14.40
2018-11-13T12:23:06.545Z,10.77
2018-11-13T12:25:35.116Z,10.87
2018-11-13T12:28:03.984Z,12.30
2018-11-13T12:30:32.632Z,13.20
2018-11-13T12:33:01.558Z,14.63
2018-11-13T12:35:30.139Z,14.17
2018-11-13T12:37:58.917Z,17.70
2018-11-13T12:40:27.504Z,20.80
2018-11-13T12:42:56.504Z,14.00
2018-11-13T12:45:25.038Z,13.73
2018-11-13T12:47:53.874Z,12.83
2018-11-13T12:50:22.394Z,7.30
2018-11-13T12:52:51.241Z,15.40
2018-11-13T12:55:22.540Z,11.13
2018-11-13T12:57:51.384Z,15.20
2018-11-13T13:00:22.821Z,10.83
2018-11-13T13:02:51.599Z,7.63
2018-11-13T13:05:20.404Z,6.03
2018-11-13T13:07:49.902Z,29.63
2018-11-13T13:10:20.640Z,5.80
2018-11-13T13:12:49.779Z,6.17
2018-11-13T13:15:19.625Z,22.60
2018-11-13T13:17:48.231Z,8.40
2018-11-13T13:20:21.089Z,11.33
2018-11-13T13:22:50.508Z,12.43
2018-11-13T13:25:20.753Z,10.63
2018-11-13T13:27:49.351Z,11.97
2018-11-13T13:30:19.653Z,11.43
2018-11-13T13:32:49.265Z,14.63
2018-11-13T13:36:00.612Z,11.53
2018-11-13T13:38:30.220Z,12.43
2018-11-13T13:41:00.264Z,9.07
2018-11-13T13:43:30.916Z,17.00
2018-11-13T13:46:00.008Z,12.47
2018-11-13T13:48:28.976Z,7.70
2018-11-13T13:50:59.012Z,7.03
2018-11-13T13:53:28.203Z,7.37
2018-11-13T13:55:57.229Z,6.23
2018-11-13T13:58:26.516Z,8.73
2018-11-13T14:00:56.196Z,14.60
2018-11-13T14:03:25.106Z,6.10
2018-11-13T14:05:53.722Z,7.97
2018-11-13T14:08:22.500Z,7.00
2018-11-13T14:10:51.167Z,9.00
2018-11-13T14:13:19.818Z,5.93
2018-11-13T14:15:50.309Z,4.30
2018-11-13T14:18:18.990Z,4.63
2018-11-13T14:20:47.980Z,5.00
2018-11-13T14:23:17.272Z,5.43
2018-11-13T14:25:45.788Z,7.20
2018-11-13T14:28:14.642Z,11.03
2018-11-13T14:30:43.326Z,10.83
2018-11-13T14:33:13.234Z,9.40
2018-11-13T14:35:42.022Z,7.43
2018-11-13T14:38:10.847Z,11.70
2018-11-13T14:40:40.695Z,5.00
2018-11-13T14:43:10.087Z,5.77
2018-11-13T14:45:38.628Z,5.27
2018-11-13T14:48:08.224Z,9.37
2018-11-13T14:50:37.579Z,9.10
2018-11-13T14:53:07.399Z,11.70
2018-11-13T14:55:38.243Z,7.53
2018-11-13T14:58:08.832Z,8.47
2018-11-13T15:00:38.265Z,10.80
2018-11-13T15:03:08.418Z,7.80
2018-11-13T15:05:36.957Z,7.70
2018-11-13T15:08:08.228Z,14.60
2018-11-13T15:10:41.917Z,10.87
2018-11-13T15:13:11.347Z,6.67
2018-11-13T15:15:39.947Z,9.10
2018-11-13T15:18:08.801Z,14.53
2018-11-13T15:20:39.625Z,7.30
2018-11-13T15:23:09.563Z,6.33
2018-11-13T15:25:38.526Z,6.70
2018-11-13T15:28:08.066Z,5.63
2018-11-13T15:30:39.326Z,6.77
2018-11-13T15:33:09.561Z,6.33
2018-11-13T15:35:39.154Z,4.83
2018-11-13T15:38:08.144Z,4.00
2018-11-13T15:40:36.914Z,5.20
2018-11-13T15:43:05.925Z,5.70
2018-11-13T15:45:34.717Z,5.37
2018-11-13T15:48:05.541Z,5.40
2018-11-13T15:50:35.168Z,5.93
2018-11-13T15:53:03.789Z,6.53
2018-11-13T15:55:32.737Z,7.47
2018-11-13T15:58:01.725Z,5.53
2018-11-13T16:00:33.014Z,3.17
2018-11-13T16:03:07.162Z,3.73
2018-11-13T16:05:39.598Z,1.80
2018-11-13T16:08:09.140Z,1.83
2018-11-13T16:10:37.700Z,4.87
2018-11-13T16:13:06.986Z,2.27
2018-11-13T16:15:36.242Z,2.60
2018-11-13T16:18:07.494Z,2.03
2018-11-13T16:20:36.719Z,1.73
2018-11-13T16:23:05.888Z,1.70
2018-11-13T16:25:34.762Z,5.17
2018-11-13T16:28:03.301Z,2.33
2018-11-13T16:30:35.722Z,2.77
2018-11-13T16:33:04.411Z,2.73
2018-11-13T16:35:34.290Z,4.60
2018-11-13T16:38:05.620Z,3.53
2018-11-13T16:40:35.089Z,11.33
2018-11-13T16:43:03.680Z,5.73
2018-11-13T16:45:33.680Z,2.60
2018-11-13T16:48:03.211Z,3.40
2018-11-13T16:50:36.433Z,2.53
2018-11-13T16:53:05.728Z,4.07
2018-11-13T16:55:39.902Z,9.70
2018-11-13T16:58:10.265Z,5.90
2018-11-13T17:00:39.449Z,5.37
2018-11-13T17:03:07.985Z,7.00
2018-11-13T17:05:37.028Z,5.73
2018-11-13T17:08:06.131Z,6.07
2018-11-13T17:10:34.792Z,7.70
2018-11-13T17:13:03.785Z,7.73
2018-11-13T17:15:33.348Z,4.37
2018-11-13T17:18:02.975Z,3.33
2018-11-13T17:20:33.406Z,4.33
2018-11-13T17:23:02.352Z,6.20
2018-11-13T17:25:32.681Z,2.50
2018-11-13T17:28:01.211Z,3.70
2018-11-13T17:30:31.507Z,3.07
2018-11-13T17:33:01.384Z,10.50
2018-11-13T17:35:30.673Z,2.63
2018-11-13T17:38:00.091Z,3.80
2018-11-13T17:40:30.288Z,3.43
2018-11-13T17:43:00.353Z,1.90
2018-11-13T17:45:31.843Z,2.10
2018-11-13T17:48:00.767Z,2.43
2018-11-13T17:50:32.142Z,2.83
2018-11-13T17:53:00.711Z,14.17
2018-11-13T17:55:30.389Z,10.30
2018-11-13T17:58:01.502Z,4.80
2018-11-13T18:00:33.093Z,4.17
2018-11-13T18:03:02.563Z,1.60
2018-11-13T18:05:31.999Z,1.93
2018-11-13T18:08:01.578Z,3.50
2018-11-13T18:10:31.995Z,2.40
2018-11-13T18:13:00.692Z,3.10
2018-11-13T18:15:30.079Z,3.80
2018-11-13T18:17:58.668Z,2.23
2018-11-13T18:20:30.255Z,5.63
2018-11-13T18:22:59.004Z,3.23
2018-11-13T18:25:28.449Z,2.00
2018-11-13T18:27:58.147Z,1.73
2018-11-13T18:30:28.819Z,7.00
2018-11-13T18:32:58.065Z,4.73
2018-11-13T18:35:28.216Z,4.83
2018-11-13T18:37:58.054Z,2.30
2018-11-13T18:40:27.677Z,6.00
2018-11-13T18:42:57.966Z,2.63
2018-11-13T18:45:30.388Z,13.53
2018-11-13T18:48:00.084Z,1.40
2018-11-13T18:50:30.215Z,1.20
2018-11-13T18:52:59.036Z,2.60
2018-11-13T18:55:28.002Z,3.57
2018-11-13T18:57:58.386Z,6.73
2018-11-13T19:00:28.396Z,1.67
2018-11-13T19:02:58.014Z,4.13
2018-11-13T19:05:27.087Z,3.53
2018-11-13T19:07:56.179Z,2.13
2018-11-13T19:10:33.529Z,2.30
2018-11-13T19:13:03.347Z,2.13
2018-11-13T19:15:33.645Z,2.40
2018-11-13T19:18:05.288Z,5.20
2018-11-13T19:20:33.957Z,3.70
2018-11-13T19:23:03.871Z,2.57
2018-11-13T19:25:34.388Z,4.83
2018-11-13T19:28:03.877Z,2.13
2018-11-13T19:30:32.399Z,3.00
2018-11-13T19:33:01.284Z,2.10
2018-11-13T19:35:31.019Z,3.40
2018-11-13T19:37:59.871Z,3.17
2018-11-13T19:40:29.907Z,2.13
2018-11-13T19:42:59.782Z,2.47
2018-11-13T19:45:28.495Z,2.80
2018-11-13T19:47:57.853Z,5.90
2018-11-13T19:50:29.097Z,3.20
2018-11-13T19:52:58.350Z,7.63
2018-11-13T19:55:27.707Z,2.87
2018-11-13T19:57:56.760Z,2.83
2018-11-13T20:00:30.534Z,2.13
2018-11-13T20:03:01.049Z,2.67
2018-11-13T20:05:30.971Z,2.40
2018-11-13T20:07:59.871Z,3.97
2018-11-13T20:10:30.996Z,25.77
2018-11-13T20:13:01.969Z,3.80
2018-11-13T20:15:31.310Z,5.30
2018-11-13T20:18:01.224Z,4.73
2018-11-13T20:20:31.212Z,9.30
2018-11-13T20:23:01.933Z,2.37
2018-11-13T20:25:33.356Z,3.17
2018-11-13T20:28:02.313Z,5.13
2018-11-13T20:30:32.605Z,3.47
2018-11-13T20:33:01.223Z,4.20
2018-11-13T20:35:31.396Z,3.00
2018-11-13T20:38:01.162Z,8.20
2018-11-13T20:40:31.611Z,4.97
2018-11-13T20:43:01.808Z,2.50
2018-11-13T20:45:32.099Z,5.60
2018-11-13T20:48:01.174Z,3.53
2018-11-13T20:50:31.940Z,6.13
2018-11-13T20:53:00.803Z,5.30
2018-11-13T20:55:29.732Z,6.50
2018-11-13T20:57:58.836Z,9.40
2018-11-13T21:00:28.669Z,3.93
2018-11-13T21:02:58.153Z,3.93
2018-11-13T21:05:26.785Z,5.97
2018-11-13T21:07:56.805Z,5.70
2018-11-13T21:10:31.875Z,7.23
2018-11-13T21:13:01.425Z,6.30
2018-11-13T21:15:30.626Z,3.90
2018-11-13T21:18:02.383Z,3.40
2018-11-13T21:20:31.121Z,5.37
2018-11-13T21:22:59.649Z,3.73
2018-11-13T21:25:29.086Z,13.40
2018-11-13T21:27:59.614Z,5.30
2018-11-13T21:30:28.509Z,8.80
2018-11-13T21:32:57.029Z,7.70
2018-11-13T21:35:26.076Z,6.60
2018-11-13T21:37:56.455Z,4.20
2018-11-13T21:40:27.766Z,6.20
2018-11-13T21:42:57.429Z,3.97
2018-11-13T21:45:27.069Z,4.00
2018-11-13T21:47:56.240Z,5.80
2018-11-13T21:50:26.526Z,5.73
2018-11-13T21:52:55.421Z,5.30
2018-11-13T21:55:25.300Z,4.40
2018-11-13T21:57:54.062Z,5.47
2018-11-13T22:00:25.482Z,5.83
2018-11-13T22:02:56.388Z,10.80
2018-11-13T22:05:27.270Z,8.43
2018-11-13T22:07:56.427Z,11.30
2018-11-13T22:10:25.262Z,4.20
2018-11-13T22:12:54.386Z,3.03
2018-11-13T22:15:25.132Z,7.57
2018-11-13T22:17:54.726Z,5.13
2018-11-13T22:20:24.305Z,6.40
2018-11-13T22:22:54.140Z,4.00
2018-11-13T22:25:24.417Z,5.83
2018-11-13T22:27:54.430Z,2.47
2018-11-13T22:30:24.263Z,6.07
2018-11-13T22:32:52.856Z,4.07
2018-11-13T22:35:22.994Z,4.20
2018-11-13T22:37:51.924Z,6.87
2018-11-13T22:40:23.066Z,4.57
2018-11-13T22:42:52.345Z,6.30
2018-11-13T22:45:22.556Z,5.57
2018-11-13T22:47:51.740Z,5.53
2018-11-13T22:50:23.764Z,16.40
2018-11-13T22:52:52.942Z,10.80
2018-11-13T22:55:21.920Z,5.47
2018-11-13T22:57:52.460Z,5.67
2018-11-13T23:00:24.835Z,3.20
2018-11-13T23:02:54.900Z,6.60
2018-11-13T23:05:24.213Z,5.90
2018-11-13T23:07:52.862Z,4.47
2018-11-13T23:10:21.595Z,7.50
2018-11-13T23:12:50.725Z,4.67
2018-11-13T23:15:21.101Z,5.87
2018-11-13T23:17:50.324Z,4.70
2018-11-13T23:20:24.434Z,6.33
2018-11-13T23:22:53.935Z,5.10
2018-11-13T23:25:23.126Z,3.30
2018-11-13T23:27:52.506Z,9.60
2018-11-13T23:30:24.895Z,6.27
2018-11-13T23:32:54.868Z,5.00
2018-11-13T23:35:24.028Z,6.63
2018-11-13T23:37:56.160Z,11.33
2018-11-13T23:40:26.377Z,7.70
2018-11-13T23:42:55.331Z,5.30
2018-11-13T23:45:25.619Z,4.67
2018-11-13T23:47:54.554Z,6.57
2018-11-13T23:50:24.420Z,3.63
2018-11-13T23:52:53.245Z,9.00
2018-11-13T23:55:22.530Z,4.87
2018-11-13T23:57:51.260Z,10.80
